ADDS METAR Data INFO
IDs: Format: Raw Decoded Include TAF

Data at: 0353 UTC 19 Feb 2018

KHSV 190313Z 16008KT 10SM OVC009 14/13 A3018 RMK AO2 T01440133 $
KHSV 190253Z 16008KT 10SM OVC012 14/13 A3019 RMK AO2 SLP221 60000 T01440133 51001 $
KHSV 190222Z 16009KT 10SM OVC013 14/13 A3019 RMK AO2 T01440133 $
KHSV 190153Z 17008KT 10SM BKN017 OVC060 14/13 A3019 RMK AO2 SLP221 T01390128 $
KHSV 190149Z 16007KT 10SM BKN017 BKN060 OVC110 14/13 A3019 RMK AO2 $
KHSV 190122Z 16011KT 10SM SCT018 BKN065 OVC080 16/12 A3018 RMK AO2 T01560117 $
KHSV 190053Z 17008KT 10SM OVC018 16/11 A3018 RMK AO2 RAB21E30 SLP221 P0000 T01560111 $
KHSV 182353Z 16004KT 10SM OVC027 16/08 A3018 RMK AO2 SLP221 60001 T01560083 10172 20139 53004 $
KHSV 182253Z 17004KT 10SM OVC028 16/08 A3017 RMK AO2 SLP216 T01610083 $
KHSV 182232Z 17005KT 10SM OVC028 17/07 A3017 RMK AO2 T01670072 $
KHSV 182153Z 15008KT 10SM BKN038 BKN100 BKN250 17/07 A3017 RMK AO2 RAE2059 SLP214 P0001 T01670067 $
KHSV 182053Z 17008KT 10SM -RA FEW045 BKN100 BKN250 17/06 A3017 RMK AO2 RAB48 SLP215 P0000 60000 T01670061 56024 $
KHSV 181953Z 14009KT 10SM SCT100 BKN250 17/05 A3018 RMK AO2 SLP217 T01670050 $
KHSV 181853Z VRB05KT 10SM FEW100 BKN250 16/05 A3021 RMK AO2 SLP228 T01560050 $
KHSV 181753Z VRB06KT 10SM FEW150 BKN250 14/05 A3024 RMK AO2 SLP241 T01390050 10144 20039 58020 $
KHSV 181653Z VRB03KT 10SM BKN250 12/06 A3028 RMK AO2 SLP254 T01170056 $
KHSV 181553Z VRB04KT 10SM SCT250 10/05 A3030 RMK AO2 SLP260 T01000050 $
KHSV 181453Z 07006KT 10SM FEW015 FEW250 08/05 A3030 RMK AO2 SLP262 T00830050 51010 $
KHSV 181353Z 04010KT 10SM FEW250 07/04 A3030 RMK AO2 SLP260 T00670039 $
KHSV 181253Z 02008KT 10SM SCT250 04/03 A3028 RMK AO2 SLP256 T00440028 $
KHSV 181153Z 02008KT 10SM FEW100 SCT250 04/03 A3027 RMK AO2 SLP252 70018 T00440033 10094 20044 53008 $
KHSV 181053Z AUTO 02006KT 10SM CLR 06/04 A3026 RMK AO2 SLP248 T00560039 $
KHSV 180953Z AUTO 02009KT 10SM CLR 07/04 A3024 RMK AO2 SLP241 T00720039 $
KHSV 180942Z AUTO 03009KT 10SM SCT024 07/04 A3024 RMK AO2 T00720039 $
KHSV 180853Z AUTO 03006KT 10SM OVC023 08/06 A3025 RMK AO2 SLP241 T00830056 50005 $
KHSV 180753Z AUTO 03011KT 10SM OVC020 09/06 A3025 RMK AO2 SLP242 T00890056 $
KHSV 180702Z AUTO 03010KT 10SM SCT014 OVC021 09/07 A3024 RMK AO2 T00940067 $
KHSV 180653Z AUTO 03007KT 10SM BKN014 OVC019 09/07 A3023 RMK AO2 SLP236 T00890072 $
KHSV 180553Z 01007KT 10SM OVC012 09/08 A3023 RMK AO2 SLP234 60007 T00940083 10100 20094 401560078 53006 $
KHSV 180453Z 35009KT 10SM OVC011 09/08 A3022 RMK AO2 SLP233 T00940078 $
KHSV 180353Z 35006KT 10SM OVC011 09/08 A3021 RMK AO2 SLP230 T00940083 $
KHSV 180253Z COR 33006KT 10SM OVC010 09/09 A3021 RMK SLP230 60007 T00940089 60007
KHSV 180234Z 33009KT 10SM OVC010 09/08 A3021 RMK T00940083
KHSV 180053Z 30007KT 10SM SCT009 BKN013 OVC050 10/10 A3016 RMK AO2 RAE45 SLP212 P0007 T01000100 $
KHSV 180042Z 29007KT 10SM -RA SCT007 BKN011 OVC070 10/10 A3015 RMK AO2 P0007 T01000100 $
KHSV 180032Z 29006KT 5SM RA BR SCT007 BKN055 OVC070 10/10 A3015 RMK AO2 P0006 T01000100 $
KHSV 180024Z 29007KT 5SM RA BR SCT007 BKN011 OVC070 10/10 A3015 RMK AO2 P0005 T01000100 $
KHSV 172353Z 30003KT 10SM -RA BKN007 OVC012 10/10 A3013 RMK AO2 CIG 005V011 SLP203 P0006 60010 T01000100 10156 20094 51021 $
KHSV 172334Z 29003KT 6SM -RA BR BKN007 BKN039 OVC050 10/10 A3012 RMK AO2 P0005 T01000100 $
KHSV 172328Z 29003KT 4SM -RA BR SCT009 BKN039 OVC070 10/10 A3012 RMK AO2 P0005 T01000100 $
KHSV 172253Z 30004KT 3SM RA BR BKN007 BKN013 OVC042 09/09 A3012 RMK AO2 TWR VIS 4 SLP198 P0004 T00940094 $
KHSV 172244Z 31004KT 3SM RA BR BKN009 OVC040 09/09 A3011 RMK AO2 P0003 T00940094 $
KHSV 172153Z 32005KT 4SM -RA BR FEW005 SCT020 OVC031 09/09 A3010 RMK AO2 SLP192 P0000 T00940094 $
KHSV 172121Z 34010KT 3SM -RA BR SCT006 BKN023 OVC028 10/10 A3008 RMK AO2 P0000 T01000100
KHSV 172053Z 33013KT 3SM RA BR OVC009 12/12 A3007 RMK AO2 DZE49RAB49 CIG 004V013 SLP181 P0000 60000 T01220117 53006
KHSV 172008Z 28004KT 10SM -DZ OVC007 13/13 A3004 RMK AO2 P0000 T01330128
KHSV 171953Z 30007KT 10SM -DZ OVC008 13/13 A3005 RMK AO2 DZE26B46 SLP173 P0000 T01330133
KHSV 171909Z 22009KT 5SM -DZ BR OVC009 15/15 A3004 RMK AO2 CIG 007V012 PRESFR P0000 T01500150
KHSV 171853Z 23012KT 2SM -DZ BR OVC011 15/14 A3006 RMK AO2 PK WND 23026/1813 TWR VIS 2 1/2 RAB15E25DZB45 CIG 008V012 SLP178 P0000 T01500144
KHSV 171827Z 24015KT 10SM OVC013 16/14 A3007 RMK AO2 PK WND 23026/1813 RAB15E25 P0000 T01560139
KHSV 171818Z 24016G26KT 10SM -RA BKN015 OVC065 16/14 A3006 RMK AO2 PK WND 23026/1813 RAB15 P0000 T01560139
KHSV 171753Z 22017G23KT 10SM BKN011 OVC018 16/14 A3005 RMK AO2 SLP175 60001 T01560139 10156 20083 50004
KHSV 171744Z 23017KT 10SM OVC011 16/14 A3006 RMK AO2 T01560139
KHSV 171653Z 21014G22KT 10SM OVC007 14/14 A3006 RMK AO2 SLP177 T01440139